HOURLY OBS INDEX

055

Northwest Slopes - south

GUNNEDAH AIRPORT AWS

Site: 055202
Alt: 262.6m
3km N of GUNNEDAH


  Time     Wind        Temp  DP   Baro     Rain since   Rain past  Vis(m), Cloud(base in m), Weather
  local        km/h                         9am  last   hr   10m    
Tue 08:00   SW  7/  9  20.9 15.4  1016.8    0.2   0.0   0.0   0.0   ----- 
Tue 08:30    W  2/  7  20.6 13.8  1017.0    0.2   0.0   0.0   0.0   ----- 
Tue 09:00    W  7/ 11  21.1 13.0  1017.2    0.2   0.0   0.0   0.0   ----- 
Tue 09:30    W 11/ 15  21.3 13.0  1017.4    0.0   0.0   0.0   0.0   ----- 
Tue 10:00    W  9/ 13  21.7 13.3  1017.5    0.0   0.0   0.0   0.0   ----- 
Tue 10:30    S  2/  7  22.4 12.1  1017.5    0.0   0.0   0.0   0.0   ----- 
Tue 11:00    S 15/ 19  22.7 10.2  1017.4    0.0   0.0   0.0   0.0   ----- 
Tue 11:30   SW  7/ 11  23.7 10.7  1017.5    0.0   0.0   0.0   0.0   ----- 
Tue 12:00  WSW 13/ 20  24.2 10.5  1017.5    0.0   0.0   0.0   0.0   ----- 
Tue 12:30  WNW 11/ 17  25.2 11.0  1017.2    0.0   0.0   0.0   0.0   ----- 
Tue 13:00    W 11/ 19  24.8 11.7  1017.0    0.0   0.0   0.0   0.0   ----- 

TAMWORTH AIRPORT AWS

Site: 055325
Alt: 394.9m
9km WNW of TAMWORTH


  Time     Wind        Temp  DP   Baro     Rain since   Rain past  Vis(m), Cloud(base in m), Weather
  local        km/h                         9am  last   hr   10m    
Tue 08:00    W 13/ 17  21.4 16.1  1017.2    0.0   0.0   0.0   0.0   10000|BR 600 OC1080 OC1260 
Tue 08:30    W 13/ 17  20.9 16.3  1017.3    0.0   0.0   0.0   0.0   10000|OC 660 OC1110 
Tue 09:00    W 13/ 17  21.7 16.2  1017.5    0.0   0.0   0.0   0.0   10000|BR 720 OC 960 
Tue 09:30    W 13/ 17  21.9 16.0  1017.6    0.0   0.0   0.0   0.0   10000|BR 540 OC 720 
Tue 10:00  WNW 13/ 17  22.2 15.5  1017.6    0.0   0.0   0.0   0.0   10000|OC 600 
Tue 10:30  WNW 13/ 19  22.8 15.4  1017.5    0.0   0.0   0.0   0.0   10000|OC 720 
Tue 11:00   NW 17/ 20  23.3 14.8  1017.5    0.0   0.0   0.0   0.0   10000|SC 780 OC1020 
Tue 11:30  WNW 15/ 20  23.8 13.4  1017.6    0.0   0.0   0.0   0.0   10000|OC 990 
Tue 12:00   SW 19/ 24  23.5 10.9  1017.9    0.0   0.0   0.0   0.0   10000|OC 990 
Tue 12:30  WSW 17/ 20  23.4 10.5  1017.8    0.0   0.0   0.0   0.0   10000|OC 990 
Tue 13:00  WNW 11/ 17  24.4 10.7  1017.5    0.0   0.0   0.0   0.0   10000|OC1050